createdAt,value
2023-04-15T00:00:31.955Z,101060.97
2023-04-15T00:03:02.566Z,101071.38
2023-04-15T00:05:33.476Z,101059.09
2023-04-15T00:08:04.593Z,101063.38
2023-04-15T00:10:37.175Z,101059.78
2023-04-15T00:13:07.176Z,101064.06
2023-04-15T00:15:37.940Z,101061.28
2023-04-15T00:18:08.363Z,101068.19
2023-04-15T00:20:38.625Z,101065.44
2023-04-15T00:23:08.429Z,101072.31
2023-04-15T00:25:41.293Z,101066.94
2023-04-15T00:28:11.567Z,101066.69
2023-04-15T00:30:44.213Z,101070.00
2023-04-15T00:33:14.122Z,101068.16
2023-04-15T00:42:29.208Z,101075.50
2023-04-15T00:45:12.718Z,101076.22
2023-04-15T00:47:46.490Z,101069.88
2023-04-15T00:50:26.124Z,101075.13
2023-04-15T00:52:58.175Z,101070.59
2023-04-15T00:55:35.706Z,101082.69
2023-04-15T00:58:08.301Z,101085.22
2023-04-15T01:00:38.148Z,101084.34
2023-04-15T01:03:11.873Z,101082.56
2023-04-15T01:05:42.637Z,101083.44
2023-04-15T01:08:25.476Z,101080.75
2023-04-15T01:11:00.355Z,101078.97
2023-04-15T01:13:33.679Z,101072.69
2023-04-15T01:16:13.093Z,101090.06
2023-04-15T01:18:44.996Z,101091.78
2023-04-15T01:21:15.054Z,101094.31
2023-04-15T01:23:47.414Z,101089.81
2023-04-15T01:26:20.261Z,101090.66
2023-04-15T01:28:50.910Z,101086.19
2023-04-15T01:31:23.124Z,101092.22
2023-04-15T01:33:53.074Z,101088.63
2023-04-15T01:36:22.958Z,101091.25
2023-04-15T01:38:55.177Z,101095.59
2023-04-15T01:41:28.859Z,101095.59
2023-04-15T01:43:58.951Z,101098.28
2023-04-15T01:46:28.856Z,101092.13
2023-04-15T01:48:58.879Z,101093.06
2023-04-15T01:51:29.002Z,101101.72
2023-04-15T01:54:01.136Z,101101.66
2023-04-15T01:56:37.833Z,101106.81
2023-04-15T01:59:10.554Z,101100.59
2023-04-15T02:01:53.457Z,101101.56
2023-04-15T02:04:32.423Z,101101.56
2023-04-15T02:07:02.288Z,101103.28
2023-04-15T02:09:33.946Z,101097.97
2023-04-15T02:12:06.382Z,101094.56
2023-04-15T02:14:42.183Z,101098.84
2023-04-15T02:17:14.256Z,101093.47
2023-04-15T02:25:58.266Z,101108.00
2023-04-15T02:31:28.385Z,101112.13
2023-04-15T02:33:58.245Z,101125.88
2023-04-15T02:36:30.024Z,101124.72
2023-04-15T02:39:00.271Z,101130.63
2023-04-15T02:41:30.338Z,101131.22
2023-04-15T02:44:02.754Z,101131.81
2023-04-15T02:46:32.599Z,101129.84
2023-04-15T02:49:03.601Z,101142.88
2023-04-15T02:51:34.317Z,101144.41
2023-04-15T02:54:04.227Z,101144.16
2023-04-15T02:56:34.052Z,101148.44
2023-04-15T02:59:10.334Z,101147.63
2023-04-15T03:01:40.196Z,101144.84
2023-04-15T03:04:11.275Z,101144.66
2023-04-15T03:06:41.228Z,101151.47
2023-04-15T03:09:11.038Z,101153.03
2023-04-15T03:11:42.332Z,101158.25
2023-04-15T03:14:14.734Z,101153.81
2023-04-15T03:16:48.530Z,101158.91
2023-04-15T03:19:18.333Z,101158.75
2023-04-15T03:21:48.118Z,101158.50
2023-04-15T03:24:17.929Z,101159.25
2023-04-15T03:26:47.821Z,101163.56
2023-04-15T03:29:20.252Z,101167.09
2023-04-15T03:31:50.070Z,101169.69
2023-04-15T03:34:19.889Z,101160.06
2023-04-15T03:36:51.500Z,101166.94
2023-04-15T03:39:21.634Z,101169.53
2023-04-15T03:41:51.468Z,101168.72
2023-04-15T03:44:23.891Z,101178.59
2023-04-15T03:46:57.588Z,101175.97
2023-04-15T03:49:36.587Z,101175.19
2023-04-15T03:52:06.447Z,101187.53
2023-04-15T03:54:36.381Z,101175.34
2023-04-15T03:57:09.602Z,101190.19
2023-04-15T03:59:42.278Z,101188.50
2023-04-15T04:02:12.265Z,101188.50
2023-04-15T04:04:58.193Z,101198.03
2023-04-15T04:07:35.245Z,101185.78
2023-04-15T04:10:17.438Z,101190.13
2023-04-15T04:12:47.264Z,101191.84
2023-04-15T04:15:19.903Z,101191.66
2023-04-15T04:17:49.772Z,101194.28
2023-04-15T04:20:19.738Z,101203.94
2023-04-15T04:22:49.616Z,101189.16
2023-04-15T04:25:19.461Z,101202.47
2023-04-15T04:27:51.638Z,101195.78
2023-04-15T04:30:30.178Z,101206.47
2023-04-15T04:33:00.382Z,101208.53
2023-04-15T04:35:31.084Z,101204.34
2023-04-15T04:38:00.928Z,101208.81
2023-04-15T04:40:30.729Z,101209.66
2023-04-15T04:43:01.438Z,101211.38
2023-04-15T04:45:34.311Z,101220.22
2023-04-15T04:48:07.315Z,101222.00
2023-04-15T04:50:37.410Z,101225.47
2023-04-15T04:53:07.255Z,101222.75
2023-04-15T04:55:37.462Z,101219.28
2023-04-15T04:58:12.786Z,101229.03
2023-04-15T05:00:46.328Z,101236.97
2023-04-15T05:03:16.562Z,101229.22
2023-04-15T05:05:48.344Z,101239.00
2023-04-15T05:08:18.236Z,101229.63
2023-04-15T05:10:48.099Z,101244.25
2023-04-15T05:13:17.942Z,101237.44
2023-04-15T05:15:51.204Z,101237.75
2023-04-15T05:18:21.260Z,101239.75
2023-04-15T05:20:54.045Z,101241.25
2023-04-15T05:23:24.123Z,101239.75
2023-04-15T05:25:54.059Z,101243.38
2023-04-15T05:28:24.210Z,101246.06
2023-04-15T05:31:02.090Z,101246.97
2023-04-15T05:33:31.919Z,101242.63
2023-04-15T05:36:01.800Z,101257.66
2023-04-15T05:38:31.593Z,101249.00
2023-04-15T05:41:01.695Z,101252.66
2023-04-15T05:43:31.911Z,101254.47
2023-04-15T05:46:04.502Z,101260.81
2023-04-15T05:48:34.582Z,101260.13
2023-04-15T05:51:06.145Z,101253.38
2023-04-15T05:53:36.097Z,101266.81
2023-04-15T05:56:06.022Z,101262.69
2023-04-15T05:58:36.154Z,101264.81
2023-04-15T06:01:10.423Z,101273.16
2023-04-15T06:03:41.193Z,101269.09
2023-04-15T06:06:11.195Z,101273.72
2023-04-15T06:08:40.988Z,101285.53
2023-04-15T06:11:10.830Z,101280.44
2023-04-15T06:13:40.855Z,101285.94
2023-04-15T06:16:13.756Z,101284.44
2023-04-15T06:18:43.592Z,101286.38
2023-04-15T06:21:13.507Z,101295.50
2023-04-15T06:23:43.998Z,101302.97
2023-04-15T06:26:13.937Z,101302.28
2023-04-15T06:28:43.768Z,101306.84
2023-04-15T06:31:16.394Z,101314.03
2023-04-15T06:33:47.839Z,101317.63
2023-04-15T06:36:17.894Z,101326.34
2023-04-15T06:38:47.767Z,101320.13
2023-04-15T06:41:17.674Z,101321.09
2023-04-15T06:43:47.632Z,101335.03
2023-04-15T06:46:22.461Z,101335.78
2023-04-15T06:48:52.722Z,101331.44
2023-04-15T06:51:23.219Z,101336.69
2023-04-15T06:53:53.842Z,101336.84
2023-04-15T06:56:23.711Z,101336.13
2023-04-15T06:58:57.542Z,101343.25
2023-04-15T07:01:40.381Z,101345.97
2023-04-15T07:04:10.329Z,101344.03
2023-04-15T07:06:42.432Z,101341.38
2023-04-15T07:09:12.411Z,101349.41
2023-04-15T07:11:42.430Z,101346.09
2023-04-15T07:14:12.276Z,101356.72
2023-04-15T07:16:44.813Z,101358.69
2023-04-15T07:19:14.829Z,101362.16
2023-04-15T07:21:44.714Z,101362.16
2023-04-15T07:24:17.151Z,101368.91
2023-04-15T07:26:48.883Z,101371.34
2023-04-15T07:29:18.695Z,101376.38
2023-04-15T07:31:51.471Z,101369.41
2023-04-15T07:34:22.255Z,101379.91
2023-04-15T07:36:52.304Z,101389.50
2023-04-15T07:39:22.587Z,101380.53
2023-04-15T07:41:52.528Z,101378.91
2023-04-15T07:44:22.413Z,101392.19
2023-04-15T07:46:54.869Z,101407.91
2023-04-15T07:49:24.795Z,101406.03
2023-04-15T07:51:55.152Z,101410.94
2023-04-15T07:54:24.957Z,101407.09
2023-04-15T07:56:54.763Z,101403.13
2023-04-15T07:59:24.610Z,101407.97
2023-04-15T08:01:57.916Z,101416.53
2023-04-15T08:04:28.856Z,101411.78
2023-04-15T08:06:58.756Z,101436.13
2023-04-15T08:09:28.610Z,101420.28
2023-04-15T08:11:59.116Z,101421.16
2023-04-15T08:14:28.975Z,101422.06
2023-04-15T08:17:01.397Z,101428.16
2023-04-15T08:19:31.270Z,101434.16
2023-04-15T08:22:03.884Z,101428.00
2023-04-15T08:24:36.950Z,101425.16
2023-04-15T08:27:21.222Z,101417.94
2023-04-15T08:29:53.851Z,101429.19
2023-04-15T08:32:26.935Z,101433.47
2023-04-15T08:35:00.908Z,101430.78
2023-04-15T09:12:38.514Z,101444.56
2023-04-15T09:15:10.035Z,101449.59
2023-04-15T09:17:50.254Z,101458.19
2023-04-15T09:20:21.846Z,101459.69
2023-04-15T09:22:59.037Z,101459.34
2023-04-15T09:28:07.349Z,101456.31
2023-04-15T09:30:42.212Z,101473.97
2023-04-15T09:33:12.320Z,101474.00
2023-04-15T09:35:42.526Z,101478.50
2023-04-15T09:38:13.378Z,101478.06
2023-04-15T09:40:48.027Z,101481.84
2023-04-15T09:43:21.411Z,101473.66
2023-04-15T09:45:52.793Z,101476.53
2023-04-15T09:48:25.664Z,101480.16
2023-04-15T09:50:57.903Z,101481.19
2023-04-15T09:53:30.479Z,101475.00
2023-04-15T09:56:03.160Z,101480.28
2023-04-15T09:58:38.955Z,101480.16
2023-04-15T10:01:10.300Z,101485.06
2023-04-15T10:03:42.624Z,101490.84
2023-04-15T10:06:13.482Z,101491.59
2023-04-15T10:08:44.329Z,101494.31
2023-04-15T10:11:17.918Z,101500.44
2023-04-15T10:13:52.666Z,101495.19
2023-04-15T10:16:23.832Z,101488.19
2023-04-15T10:19:01.174Z,101500.59
2023-04-15T10:33:03.641Z,101497.44
2023-04-15T10:35:37.157Z,101520.28
2023-04-15T10:38:42.035Z,101511.56
2023-04-15T10:41:21.163Z,101513.22
2023-04-15T10:43:53.375Z,101518.34
2023-04-15T10:46:41.775Z,101503.28
2023-04-15T10:51:50.727Z,101510.97
2023-04-15T10:54:40.659Z,101508.28
2023-04-15T11:03:01.981Z,101520.03
2023-04-15T11:05:53.596Z,101530.53
2023-04-15T11:08:28.143Z,101531.16
2023-04-15T11:11:00.748Z,101523.94
2023-04-15T11:13:33.375Z,101533.56
2023-04-15T11:16:06.776Z,101528.78
2023-04-15T11:18:38.231Z,101538.56
2023-04-15T11:21:14.683Z,101549.53
2023-04-15T11:23:58.068Z,101541.34
2023-04-15T11:26:36.167Z,101558.19
2023-04-15T11:29:14.768Z,101559.16
2023-04-15T11:31:55.747Z,101559.09
2023-04-15T11:34:26.602Z,101563.22
2023-04-15T11:37:01.012Z,101570.25
2023-04-15T11:39:32.637Z,101562.25
2023-04-15T11:42:05.290Z,101569.31
2023-04-15T11:44:37.855Z,101562.47
2023-04-15T11:47:26.252Z,101573.81
2023-04-15T11:49:57.809Z,101563.00
2023-04-15T11:55:07.016Z,101560.50
2023-04-15T11:57:42.610Z,101568.38
2023-04-15T12:00:13.878Z,101583.25
2023-04-15T12:02:48.994Z,101590.25
2023-04-15T12:05:21.658Z,101580.34
2023-04-15T12:08:08.423Z,101583.66
2023-04-15T12:10:38.364Z,101594.16
2023-04-15T12:13:13.276Z,101586.28
2023-04-15T12:15:48.360Z,101591.53
2023-04-15T12:18:24.667Z,101594.09
2023-04-15T12:21:17.189Z,101600.06
2023-04-15T12:23:52.332Z,101597.25
2023-04-15T12:26:28.643Z,101596.50
2023-04-15T12:29:15.316Z,101601.56
2023-04-15T12:31:56.360Z,101600.69
2023-04-15T12:34:35.953Z,101607.00
2023-04-15T12:37:10.857Z,101604.66
2023-04-15T12:39:52.544Z,101615.25
2023-04-15T12:42:29.942Z,101616.28
2023-04-15T12:45:02.572Z,101612.88
2023-04-15T12:47:51.987Z,101614.66
2023-04-15T12:53:42.884Z,101623.56
2023-04-15T12:56:14.177Z,101616.53
2023-04-15T12:58:44.174Z,101624.31
2023-04-15T13:01:16.834Z,101623.44
2023-04-15T13:03:46.862Z,101625.16
2023-04-15T13:06:16.886Z,101627.66
2023-04-15T13:08:57.851Z,101619.75
2023-04-15T13:11:32.068Z,101621.41
2023-04-15T13:14:02.536Z,101624.94
2023-04-15T13:16:36.922Z,101635.22
2023-04-15T13:19:07.595Z,101642.28
2023-04-15T13:21:37.513Z,101633.56
2023-04-15T13:24:11.319Z,101644.22
2023-04-15T13:46:59.193Z,101650.44
2023-04-15T13:49:29.933Z,101651.19
2023-04-15T13:52:01.302Z,101660.84
2023-04-15T13:54:37.366Z,101661.59
2023-04-15T13:57:08.276Z,101661.56
2023-04-15T13:59:38.142Z,101666.06
2023-04-15T14:02:12.970Z,101661.59
2023-04-15T14:04:42.916Z,101666.56
2023-04-15T14:07:12.960Z,101674.28
2023-04-15T14:09:43.526Z,101678.66
2023-04-15T14:12:13.511Z,101678.94
2023-04-15T14:14:43.429Z,101684.81
2023-04-15T14:17:15.859Z,101682.91
2023-04-15T14:19:45.729Z,101685.31
2023-04-15T14:22:15.572Z,101684.56
2023-04-15T14:24:50.101Z,101681.09
2023-04-15T14:27:19.951Z,101694.22
2023-04-15T14:29:49.839Z,101687.09
2023-04-15T14:32:22.285Z,101702.94
2023-04-15T14:34:52.172Z,101703.59
2023-04-15T14:37:22.154Z,101706.91
2023-04-15T14:39:52.003Z,101711.06
2023-04-15T14:42:21.841Z,101716.06
2023-04-15T14:44:51.707Z,101708.13
2023-04-15T14:47:24.481Z,101708.19
2023-04-15T14:49:56.171Z,101711.50
2023-04-15T14:52:26.022Z,101711.66
2023-04-15T14:54:55.865Z,101713.28
2023-04-15T14:57:25.731Z,101722.00
2023-04-15T14:59:56.876Z,101716.81
2023-04-15T15:02:38.350Z,101723.00
2023-04-15T15:05:10.267Z,101727.41
2023-04-15T15:07:41.350Z,101728.06
2023-04-15T15:10:11.725Z,101733.16
2023-04-15T15:15:40.567Z,101755.78
2023-04-15T15:18:24.625Z,101754.00
2023-04-15T15:20:57.378Z,101762.50
2023-04-15T15:23:28.862Z,101749.38
2023-04-15T15:47:32.761Z,101772.34
2023-04-15T15:50:06.128Z,101772.91
2023-04-15T15:52:38.571Z,101779.16
2023-04-15T15:55:09.380Z,101772.84
2023-04-15T15:57:39.194Z,101779.56
2023-04-15T16:00:12.753Z,101778.56
2023-04-15T16:03:04.425Z,101779.22
2023-04-15T16:05:36.506Z,101777.59
2023-04-15T16:08:06.353Z,101780.22
2023-04-15T16:10:36.407Z,101782.84
2023-04-15T16:13:06.283Z,101786.44
2023-04-15T16:15:37.594Z,101783.66
2023-04-15T16:18:10.129Z,101795.69
2023-04-15T16:20:42.493Z,101793.97
2023-04-15T16:23:16.080Z,101788.81
2023-04-15T16:25:48.521Z,101791.16
2023-04-15T16:28:26.212Z,101792.81
2023-04-15T16:30:57.364Z,101793.72
2023-04-15T16:33:29.899Z,101807.75
2023-04-15T16:35:59.747Z,101801.50
2023-04-15T16:38:30.356Z,101804.91
2023-04-15T16:41:02.739Z,101808.22
2023-04-15T16:43:32.740Z,101809.84
2023-04-15T16:46:02.631Z,101809.94
2023-04-15T16:48:36.212Z,101814.44
2023-04-15T16:51:08.356Z,101810.00
2023-04-15T16:53:38.253Z,101817.88
2023-04-15T16:56:08.882Z,101814.97
2023-04-15T16:58:38.717Z,101815.09
2023-04-15T17:01:08.676Z,101823.06
2023-04-15T17:03:41.344Z,101830.09
2023-04-15T17:06:11.293Z,101821.97
2023-04-15T17:08:41.111Z,101821.16
2023-04-15T17:11:11.406Z,101826.19
2023-04-15T17:13:41.325Z,101834.06
2023-04-15T17:16:11.725Z,101830.91
2023-04-15T17:18:44.340Z,101835.25
2023-04-15T17:21:17.737Z,101845.72
2023-04-15T17:23:47.615Z,101845.66
2023-04-15T17:26:17.448Z,101838.69
2023-04-15T17:28:47.590Z,101850.97
2023-04-15T17:31:17.482Z,101843.75
2023-04-15T17:34:00.864Z,101850.81
2023-04-15T17:36:38.050Z,101847.00
2023-04-15T17:39:07.970Z,101848.00
2023-04-15T17:41:37.876Z,101856.88
2023-04-15T17:44:07.777Z,101855.44
2023-04-15T17:46:37.747Z,101858.94
2023-04-15T17:49:10.352Z,101861.66
2023-04-15T17:51:40.234Z,101862.63
2023-04-15T17:54:10.064Z,101867.88
2023-04-15T17:56:39.912Z,101872.31
2023-04-15T17:59:10.842Z,101869.69
2023-04-15T18:01:42.670Z,101880.31
2023-04-15T18:04:15.319Z,101884.63
2023-04-15T18:06:45.324Z,101888.16
2023-04-15T18:09:20.544Z,101881.09
2023-04-15T18:11:50.370Z,101885.44
2023-04-15T18:14:31.116Z,101887.06
2023-04-15T18:17:03.986Z,101881.00
2023-04-15T18:19:36.474Z,101882.81
2023-04-15T18:22:10.650Z,101894.94
2023-04-15T18:24:40.648Z,101888.53
2023-04-15T18:27:10.627Z,101899.91
2023-04-15T18:29:40.524Z,101888.69
2023-04-15T18:32:10.441Z,101889.59
2023-04-15T18:34:43.136Z,101887.91
2023-04-15T18:37:13.038Z,101899.34
2023-04-15T18:39:42.961Z,101905.59
2023-04-15T18:42:12.887Z,101910.13
2023-04-15T18:44:42.739Z,101921.53
2023-04-15T18:47:15.637Z,101930.31
2023-04-15T18:49:48.430Z,101923.16
2023-04-15T18:52:18.356Z,101935.47
2023-04-15T18:54:48.301Z,101929.41
2023-04-15T18:57:23.759Z,101935.63
2023-04-15T19:00:02.683Z,101927.75
2023-04-15T19:02:32.801Z,101944.31
2023-04-15T19:05:05.888Z,101942.59
2023-04-15T19:07:35.988Z,101956.09
2023-04-15T19:10:06.160Z,101955.38
2023-04-15T19:12:37.533Z,101957.78
2023-04-15T19:15:08.113Z,101960.34
2023-04-15T19:17:38.010Z,101962.97
2023-04-15T19:20:11.446Z,101962.13
2023-04-15T19:22:41.933Z,101964.75
2023-04-15T19:25:12.637Z,101964.94
2023-04-15T19:27:42.527Z,101968.28
2023-04-15T19:30:14.982Z,101969.09
2023-04-15T19:32:44.844Z,101963.59
2023-04-15T19:35:17.372Z,101969.56
2023-04-15T19:37:47.324Z,101969.66
2023-04-15T19:40:18.806Z,101964.31
2023-04-15T19:42:48.664Z,101966.88
2023-04-15T19:45:18.663Z,101964.88
2023-04-15T19:47:51.617Z,101970.28
2023-04-15T19:50:28.024Z,101962.31
2023-04-15T19:52:57.836Z,101968.38
2023-04-15T19:55:27.671Z,101964.88
2023-04-15T19:57:57.489Z,101967.56
2023-04-15T20:00:27.725Z,101976.34
2023-04-15T20:02:59.121Z,101972.81
2023-04-15T20:05:31.653Z,101971.19
2023-04-15T20:08:01.621Z,101973.91
2023-04-15T20:10:32.012Z,101976.63
2023-04-15T20:13:02.063Z,101977.44
2023-04-15T20:15:32.092Z,101972.28
2023-04-15T20:18:01.996Z,101971.56
2023-04-15T20:20:34.549Z,101973.53
2023-04-15T20:23:04.448Z,101972.72
2023-04-15T20:25:34.238Z,101972.56
2023-04-15T20:28:04.217Z,101970.00
2023-04-15T20:30:34.115Z,101977.81
2023-04-15T20:33:08.625Z,101975.34
2023-04-15T20:35:41.339Z,101978.78
2023-04-15T20:38:11.325Z,101978.59
2023-04-15T20:40:41.841Z,101989.19
2023-04-15T20:43:11.925Z,101990.94
2023-04-15T20:45:41.782Z,101988.38
2023-04-15T20:48:11.734Z,101992.72
2023-04-15T20:50:49.857Z,101986.66
2023-04-15T20:53:20.843Z,101985.91
2023-04-15T20:55:50.754Z,101992.16
2023-04-15T20:58:20.760Z,101994.91
2023-04-15T21:00:50.716Z,101992.16
2023-04-15T21:03:20.791Z,101996.69
2023-04-15T21:05:54.874Z,101992.44
2023-04-15T21:08:29.574Z,101994.34
2023-04-15T21:10:59.735Z,101991.63
2023-04-15T21:13:29.651Z,101991.72
2023-04-15T21:16:00.402Z,101995.25
2023-04-15T21:18:30.352Z,101985.63
2023-04-15T21:21:03.717Z,101996.13
2023-04-15T21:23:36.110Z,102003.94
2023-04-15T21:26:09.095Z,102002.13
2023-04-15T21:28:39.541Z,102012.59
2023-04-15T21:31:09.388Z,102003.94
2023-04-15T21:33:39.462Z,102013.78
2023-04-15T21:36:12.067Z,102007.56
2023-04-15T21:38:41.967Z,102022.47
2023-04-15T21:41:12.365Z,102018.25
2023-04-15T21:43:42.231Z,102022.59
2023-04-15T21:46:24.369Z,102027.91
2023-04-15T21:48:57.512Z,102033.09
2023-04-15T21:51:30.158Z,102037.41
2023-04-15T21:54:00.012Z,102048.91
2023-04-15T21:56:31.407Z,102055.97
2023-04-15T21:59:01.613Z,102048.91
2023-04-15T22:01:31.603Z,102050.72
2023-04-15T22:04:01.656Z,102056.06
2023-04-15T22:06:34.908Z,102053.53
2023-04-15T22:09:04.715Z,102050.72
2023-04-15T22:11:34.533Z,102048.91
2023-04-15T22:14:08.568Z,102050.47
2023-04-15T22:16:38.529Z,102049.56
2023-04-15T22:19:09.014Z,102054.81
2023-04-15T22:21:41.511Z,102055.59
2023-04-15T22:24:34.429Z,102051.97
2023-04-15T22:27:03.024Z,102056.25
2023-04-15T22:29:33.051Z,102058.22
2023-04-15T22:32:02.909Z,102055.69
2023-04-15T22:34:32.820Z,102054.53
2023-04-15T22:37:05.352Z,102059.06
2023-04-15T22:39:35.484Z,102066.19
2023-04-15T22:42:05.378Z,102064.47
2023-04-15T22:44:35.248Z,102068.66
2023-04-15T22:47:14.237Z,102067.53
2023-04-15T22:49:45.066Z,102071.06
2023-04-15T22:52:29.501Z,102073.78
2023-04-15T22:55:00.346Z,102073.06
2023-04-15T22:57:31.139Z,102082.66
2023-04-15T23:00:01.431Z,102082.56
2023-04-15T23:02:31.387Z,102082.75
2023-04-15T23:05:12.523Z,102095.13
2023-04-15T23:07:45.884Z,102086.47
2023-04-15T23:10:15.938Z,102096.06
2023-04-15T23:12:45.772Z,102096.25
2023-04-15T23:15:15.781Z,102100.59
2023-04-15T23:17:45.973Z,102095.34
2023-04-15T23:20:16.512Z,102104.91
2023-04-15T23:22:48.986Z,102101.56
2023-04-15T23:25:21.308Z,102107.81
2023-04-15T23:27:51.118Z,102107.81
2023-04-15T23:30:21.188Z,102110.38
2023-04-15T23:32:51.149Z,102112.00
2023-04-15T23:35:21.109Z,102103.84
2023-04-15T23:37:53.751Z,102103.94
2023-04-15T23:40:23.682Z,102102.22
2023-04-15T23:42:53.528Z,102094.25
2023-04-15T23:45:23.365Z,102099.59
2023-04-15T23:47:59.312Z,102095.88
2023-04-15T23:50:35.306Z,102110.53
2023-04-15T23:53:07.824Z,102106.00
2023-04-15T23:55:37.893Z,102112.97
2023-04-15T23:58:07.667Z,102110.19
